Time;durP1;ratioP1;P1;durP2;ratioP2;P2;SDS_P1;SDS_P2;PMS_P1;PMS_P2;Temp;Humidity;BMP_temperature;BMP_pressure;BME280_temperature;BME280_humidity;BME280_pressure;Samples;Min_cycle;Max_cycle;Signal;HPM_P1;HPM_P2
2023/06/15 00:01:51;;;;;;;4.60;3.95;;;;;;;;;;5093074;28;20036;-72
2023/06/15 00:04:17;;;;;;;7.50;4.55;;;;;;;;;;5093000;28;20066;-72
2023/06/15 00:06:43;;;;;;;5.03;4.35;;;;;;;;;;5092804;28;20110;-72
2023/06/15 00:09:08;;;;;;;9.73;4.20;;;;;;;;;;5075608;28;20020;-72
2023/06/15 00:11:33;;;;;;;5.85;4.53;;;;;;;;;;5073223;28;20074;-72
2023/06/15 00:13:59;;;;;;;7.70;4.63;;;;;;;;;;5072547;28;20033;-73
2023/06/15 00:16:30;;;;;;;7.65;4.28;;;;;;;;;;5072624;28;20123;-72
2023/06/15 00:19:01;;;;;;;6.88;4.15;;;;;;;;;;5072488;28;20061;-72
2023/06/15 00:21:27;;;;;;;5.72;4.10;;;;;;;;;;5071090;28;20037;-72
2023/06/15 00:23:52;;;;;;;7.97;5.30;;;;;;;;;;5073003;28;20046;-72
2023/06/15 00:26:17;;;;;;;5.32;4.57;;;;;;;;;;5072323;28;20151;-73
2023/06/15 00:28:43;;;;;;;8.32;4.50;;;;;;;;;;5071642;28;20376;-72
2023/06/15 00:31:08;;;;;;;6.63;4.45;;;;;;;;;;5072391;28;20349;-72
2023/06/15 00:33:33;;;;;;;8.30;4.68;;;;;;;;;;5072170;28;20035;-72
2023/06/15 00:35:59;;;;;;;5.18;4.38;;;;;;;;;;5072779;28;20020;-72
2023/06/15 00:38:24;;;;;;;9.48;4.32;;;;;;;;;;5072072;28;20036;-72
2023/06/15 00:40:50;;;;;;;4.55;4.03;;;;;;;;;;5072190;28;20031;-72
2023/06/15 00:43:18;;;;;;;6.97;3.97;;;;;;;;;;5072053;28;20036;-72
2023/06/15 00:45:44;;;;;;;7.15;4.25;;;;;;;;;;5071750;28;20101;-72
2023/06/15 00:48:09;;;;;;;6.82;4.43;;;;;;;;;;5070403;28;20231;-72
2023/06/15 00:50:34;;;;;;;14.38;4.85;;;;;;;;;;5072364;28;20016;-72
2023/06/15 00:53:03;;;;;;;5.95;4.82;;;;;;;;;;5071967;28;20025;-72
2023/06/15 00:55:30;;;;;;;8.25;4.95;;;;;;;;;;5070335;28;20467;-72
2023/06/15 00:57:56;;;;;;;6.82;5.10;;;;;;;;;;5071530;28;20071;-72
2023/06/15 01:00:21;;;;;;;6.90;5.20;;;;;;;;;;5071777;28;20048;-72
2023/06/15 01:02:49;;;;;;;6.50;4.43;;;;;;;;;;5072144;28;20017;-72
2023/06/15 01:05:16;;;;;;;5.10;4.53;;;;;;;;;;5080592;28;20454;-72
2023/06/15 01:07:47;;;;;;;9.75;4.82;;;;;;;;;;5091456;28;20088;-72
2023/06/15 01:10:15;;;;;;;6.00;4.65;;;;;;;;;;5091716;28;20097;-72
2023/06/15 01:12:41;;;;;;;10.73;4.70;;;;;;;;;;5078551;28;20033;-72
2023/06/15 01:15:07;;;;;;;8.70;4.13;;;;;;;;;;5071330;28;20496;-72
2023/06/15 01:17:34;;;;;;;4.63;4.00;;;;;;;;;;5071645;28;20039;-72
2023/06/15 01:20:07;;;;;;;5.82;4.40;;;;;;;;;;5086534;28;20394;-73
2023/06/15 01:22:59;;;;;;;6.37;4.67;;;;;;;;;;5091394;28;20036;-72
2023/06/15 01:25:45;;;;;;;6.55;5.05;;;;;;;;;;5087553;28;20520;-72
2023/06/15 01:28:13;;;;;;;6.07;4.85;;;;;;;;;;5070936;28;20062;-72
2023/06/15 01:30:46;;;;;;;7.13;5.30;;;;;;;;;;5070881;28;20067;-72
2023/06/15 01:33:12;;;;;;;5.28;4.68;;;;;;;;;;5070716;28;20036;-72
2023/06/15 01:35:38;;;;;;;7.50;5.30;;;;;;;;;;5071430;28;20029;-72
2023/06/15 01:38:04;;;;;;;8.50;4.55;;;;;;;;;;5070659;28;20033;-72
2023/06/15 01:40:31;;;;;;;6.68;5.13;;;;;;;;;;5068341;28;20035;-72
2023/06/15 01:42:57;;;;;;;4.97;4.18;;;;;;;;;;5070861;28;20094;-72
2023/06/15 01:45:23;;;;;;;8.30;4.80;;;;;;;;;;5070644;28;20449;-74
2023/06/15 01:47:49;;;;;;;5.13;4.55;;;;;;;;;;5069661;28;20025;-72
2023/06/15 01:50:16;;;;;;;5.32;4.45;;;;;;;;;;5069349;28;20032;-72
2023/06/15 01:52:41;;;;;;;7.53;4.97;;;;;;;;;;5070546;28;20063;-72
2023/06/15 01:55:07;;;;;;;7.63;5.55;;;;;;;;;;5070598;28;20052;-72
2023/06/15 01:57:37;;;;;;;8.68;5.38;;;;;;;;;;5070271;28;20062;-72
2023/06/15 02:00:04;;;;;;;7.72;5.45;;;;;;;;;;5069146;28;20043;-72
2023/06/15 02:02:31;;;;;;;7.40;5.80;;;;;;;;;;5070713;28;20025;-72
2023/06/15 02:04:56;;;;;;;8.75;5.60;;;;;;;;;;5070331;28;20036;-72
2023/06/15 02:07:22;;;;;;;9.63;5.20;;;;;;;;;;5071836;28;20457;-72
2023/06/15 02:09:47;;;;;;;7.53;5.43;;;;;;;;;;5090587;28;20036;-73
2023/06/15 02:12:12;;;;;;;7.65;5.45;;;;;;;;;;5089310;28;20024;-72
2023/06/15 02:14:37;;;;;;;6.55;5.25;;;;;;;;;;5090393;28;20492;-72
2023/06/15 02:17:03;;;;;;;7.22;5.47;;;;;;;;;;5090514;28;20101;-72
2023/06/15 02:19:28;;;;;;;14.02;5.22;;;;;;;;;;5090576;28;20040;-72
2023/06/15 02:21:54;;;;;;;12.80;5.07;;;;;;;;;;5090509;28;20402;-72
2023/06/15 02:24:19;;;;;;;10.52;5.40;;;;;;;;;;5090361;28;20024;-72
2023/06/15 02:26:46;;;;;;;5.90;5.18;;;;;;;;;;5086010;28;20052;-74
2023/06/15 02:29:11;;;;;;;6.47;5.20;;;;;;;;;;5074385;28;20495;-74
2023/06/15 02:31:37;;;;;;;7.60;5.70;;;;;;;;;;5070261;28;20039;-74
2023/06/15 02:34:03;;;;;;;13.70;5.72;;;;;;;;;;5070138;28;20033;-74
2023/06/15 02:36:28;;;;;;;6.13;5.43;;;;;;;;;;5068686;28;20396;-74
2023/06/15 02:38:54;;;;;;;6.93;4.82;;;;;;;;;;5070483;28;20023;-74
2023/06/15 02:41:19;;;;;;;7.60;5.78;;;;;;;;;;5078366;28;20494;-74
2023/06/15 02:43:44;;;;;;;9.43;5.57;;;;;;;;;;5070081;28;20064;-74
2023/06/15 02:46:10;;;;;;;8.13;5.47;;;;;;;;;;5070202;28;20423;-74
2023/06/15 02:48:35;;;;;;;7.32;5.53;;;;;;;;;;5069792;28;20123;-74
2023/06/15 02:51:01;;;;;;;8.13;5.60;;;;;;;;;;5070412;28;20025;-74
2023/06/15 02:53:26;;;;;;;8.57;5.20;;;;;;;;;;5083658;28;20032;-74
2023/06/15 02:55:54;;;;;;;9.95;5.38;;;;;;;;;;5080505;28;20032;-74
2023/06/15 02:58:20;;;;;;;10.57;5.82;;;;;;;;;;5074339;28;20495;-74
2023/06/15 03:00:51;;;;;;;6.75;5.50;;;;;;;;;;5090025;28;20108;-74
2023/06/15 03:03:22;;;;;;;6.95;5.32;;;;;;;;;;5081845;28;20073;-74
2023/06/15 03:05:48;;;;;;;7.85;4.80;;;;;;;;;;5074358;28;20036;-73
2023/06/15 03:08:15;;;;;;;8.95;5.55;;;;;;;;;;5072262;28;20091;-73
2023/06/15 03:10:40;;;;;;;8.35;5.32;;;;;;;;;;5050725;28;20187;-73
2023/06/15 03:13:06;;;;;;;13.80;5.43;;;;;;;;;;5060676;28;20140;-74
2023/06/15 03:15:31;;;;;;;6.72;5.38;;;;;;;;;;5072114;28;20036;-74
2023/06/15 03:17:57;;;;;;;7.47;5.82;;;;;;;;;;5073855;28;20059;-73
2023/06/15 03:20:22;;;;;;;9.10;5.65;;;;;;;;;;5073439;28;20106;-74
2023/06/15 03:22:48;;;;;;;10.68;5.60;;;;;;;;;;5073538;28;20024;-74
2023/06/15 03:25:13;;;;;;;13.18;6.15;;;;;;;;;;5073365;28;20028;-73
2023/06/15 03:27:40;;;;;;;7.50;5.45;;;;;;;;;;5093137;28;20402;-73
2023/06/15 03:30:09;;;;;;;6.85;5.22;;;;;;;;;;5093512;28;20466;-73
2023/06/15 03:32:34;;;;;;;10.10;5.53;;;;;;;;;;5093957;28;20027;-74
2023/06/15 03:34:59;;;;;;;9.75;6.68;;;;;;;;;;5093709;28;20094;-74
2023/06/15 03:37:25;;;;;;;8.57;6.47;;;;;;;;;;5093430;28;20116;-74
2023/06/15 03:39:50;;;;;;;8.00;5.97;;;;;;;;;;5093448;28;20559;-74
2023/06/15 03:42:15;;;;;;;7.90;6.03;;;;;;;;;;5093416;28;20036;-74
2023/06/15 03:44:41;;;;;;;16.42;6.30;;;;;;;;;;5093777;28;20652;-74
2023/06/15 03:47:06;;;;;;;8.98;6.15;;;;;;;;;;5093651;28;20394;-74
2023/06/15 03:49:31;;;;;;;7.82;5.95;;;;;;;;;;5083445;28;20045;-73
2023/06/15 03:51:57;;;;;;;8.32;6.10;;;;;;;;;;5087523;28;20031;-73
2023/06/15 03:54:22;;;;;;;9.05;6.43;;;;;;;;;;5094048;28;20089;-74
2023/06/15 03:56:47;;;;;;;9.75;6.10;;;;;;;;;;5094147;28;20036;-73
2023/06/15 03:59:13;;;;;;;10.25;5.68;;;;;;;;;;5084609;28;20460;-74
2023/06/15 04:01:38;;;;;;;9.52;6.00;;;;;;;;;;5076063;28;20028;-74
2023/06/15 04:04:03;;;;;;;14.63;6.03;;;;;;;;;;5092390;28;20032;-74
2023/06/15 04:06:29;;;;;;;8.38;5.80;;;;;;;;;;5075242;28;20491;-74
2023/06/15 04:08:55;;;;;;;13.75;5.97;;;;;;;;;;5073780;28;20024;-74
2023/06/15 04:11:20;;;;;;;7.63;5.22;;;;;;;;;;5073196;28;20032;-74
2023/06/15 04:13:46;;;;;;;5.57;4.72;;;;;;;;;;5073090;28;20434;-74
2023/06/15 04:16:11;;;;;;;6.13;5.10;;;;;;;;;;5073190;28;20123;-74
2023/06/15 04:18:36;;;;;;;12.50;5.43;;;;;;;;;;5072971;28;20028;-74
2023/06/15 04:21:03;;;;;;;6.57;5.05;;;;;;;;;;5073503;28;20082;-74
2023/06/15 04:23:29;;;;;;;6.25;4.65;;;;;;;;;;5072971;28;20517;-74
2023/06/15 04:25:58;;;;;;;6.80;5.00;;;;;;;;;;5072947;28;20029;-74
2023/06/15 04:28:24;;;;;;;5.78;4.65;;;;;;;;;;5072551;28;20044;-74
2023/06/15 04:30:54;;;;;;;8.05;4.43;;;;;;;;;;5072996;28;20062;-74
2023/06/15 04:33:20;;;;;;;9.23;5.03;;;;;;;;;;5072644;28;20078;-74
2023/06/15 04:35:46;;;;;;;5.65;4.85;;;;;;;;;;5073111;28;20474;-74
2023/06/15 04:38:14;;;;;;;5.10;4.35;;;;;;;;;;5072528;28;20033;-74
2023/06/15 04:40:46;;;;;;;9.32;5.13;;;;;;;;;;5072540;28;20028;-74
2023/06/15 04:43:11;;;;;;;8.85;5.25;;;;;;;;;;5072435;28;20035;-74
2023/06/15 04:45:36;;;;;;;14.85;5.93;;;;;;;;;;5072322;28;20453;-75
2023/06/15 04:48:02;;;;;;;12.50;6.13;;;;;;;;;;5070739;28;20024;-75
2023/06/15 04:50:30;;;;;;;7.57;5.55;;;;;;;;;;5089929;28;20109;-74
2023/06/15 04:52:55;;;;;;;9.25;5.35;;;;;;;;;;5087433;28;20513;-74
2023/06/15 04:55:21;;;;;;;14.10;5.45;;;;;;;;;;5072335;28;20111;-74
2023/06/15 04:57:46;;;;;;;8.18;5.20;;;;;;;;;;5080479;28;20044;-75
2023/06/15 05:00:13;;;;;;;8.15;4.93;;;;;;;;;;5080545;28;20466;-75
2023/06/15 05:02:39;;;;;;;11.40;5.65;;;;;;;;;;5074748;28;20028;-74
2023/06/15 05:05:05;;;;;;;9.50;5.15;;;;;;;;;;5077788;28;20521;-74
2023/06/15 05:07:30;;;;;;;11.60;6.55;;;;;;;;;;5071696;28;20029;-74
2023/06/15 05:09:56;;;;;;;7.28;5.53;;;;;;;;;;5071751;28;20029;-75
2023/06/15 05:12:21;;;;;;;21.77;5.95;;;;;;;;;;5071679;28;20216;-75
2023/06/15 05:14:47;;;;;;;12.00;5.30;;;;;;;;;;5071918;28;20028;-75
2023/06/15 05:17:12;;;;;;;32.42;6.72;;;;;;;;;;5071488;28;20498;-75
2023/06/15 05:19:38;;;;;;;95.32;9.82;;;;;;;;;;5073612;28;20048;-75
2023/06/15 05:22:05;;;;;;;85.93;9.40;;;;;;;;;;5085940;28;20399;-75
2023/06/15 05:24:30;;;;;;;62.53;8.15;;;;;;;;;;5078693;28;20028;-75
2023/06/15 05:26:56;;;;;;;55.17;8.73;;;;;;;;;;5067091;28;20032;-75
2023/06/15 05:29:22;;;;;;;17.13;5.82;;;;;;;;;;5073279;28;20028;-75
2023/06/15 05:31:47;;;;;;;9.38;5.43;;;;;;;;;;5074615;28;20406;-75
2023/06/15 05:34:12;;;;;;;22.80;5.85;;;;;;;;;;5078566;28;20037;-75
2023/06/15 05:36:37;;;;;;;11.15;5.22;;;;;;;;;;5069806;28;20029;-75
2023/06/15 05:39:03;;;;;;;13.68;5.78;;;;;;;;;;5071306;28;20024;-75
2023/06/15 05:41:29;;;;;;;17.13;5.40;;;;;;;;;;5088626;28;20115;-75
2023/06/15 05:43:54;;;;;;;10.68;4.97;;;;;;;;;;5080636;28;20036;-75
2023/06/15 05:46:20;;;;;;;7.20;4.82;;;;;;;;;;5081956;28;20525;-73
2023/06/15 05:48:45;;;;;;;6.85;5.28;;;;;;;;;;5085112;28;20036;-74
2023/06/15 05:51:10;;;;;;;7.78;4.43;;;;;;;;;;5078855;28;20398;-73
2023/06/15 05:53:36;;;;;;;10.07;4.82;;;;;;;;;;5085955;28;20069;-73
2023/06/15 05:56:03;;;;;;;9.38;4.80;;;;;;;;;;5075996;28;20032;-73
2023/06/15 05:58:28;;;;;;;14.05;4.93;;;;;;;;;;5073831;28;20039;-73
2023/06/15 06:00:53;;;;;;;16.38;5.40;;;;;;;;;;5069996;28;20029;-74
2023/06/15 06:03:19;;;;;;;6.28;3.97;;;;;;;;;;5071345;28;20032;-74
2023/06/15 06:05:44;;;;;;;4.63;3.83;;;;;;;;;;5081322;28;20024;-74
2023/06/15 06:08:10;;;;;;;4.35;3.92;;;;;;;;;;5076114;28;20040;-73
2023/06/15 06:10:35;;;;;;;5.15;4.03;;;;;;;;;;5069830;28;20067;-74
2023/06/15 06:13:00;;;;;;;6.28;4.35;;;;;;;;;;5084301;28;20032;-74
2023/06/15 06:15:26;;;;;;;7.05;4.32;;;;;;;;;;5084608;28;20148;-74
2023/06/15 06:17:52;;;;;;;5.68;3.95;;;;;;;;;;5054886;28;20051;-74
2023/06/15 06:20:17;;;;;;;6.55;4.03;;;;;;;;;;5068741;28;20061;-74
2023/06/15 06:22:43;;;;;;;7.07;3.95;;;;;;;;;;5071402;28;20040;-74
2023/06/15 06:25:08;;;;;;;4.00;3.60;;;;;;;;;;5065734;28;20035;-76
2023/06/15 06:27:33;;;;;;;9.13;3.90;;;;;;;;;;5060228;28;20076;-76
2023/06/15 06:29:59;;;;;;;6.65;3.53;;;;;;;;;;5079417;28;20020;-76
2023/06/15 06:32:25;;;;;;;8.80;3.92;;;;;;;;;;5071595;28;20395;-76
2023/06/15 06:34:50;;;;;;;4.40;3.90;;;;;;;;;;5065609;28;20102;-76
2023/06/15 06:37:15;;;;;;;10.82;3.92;;;;;;;;;;5064249;28;20024;-77
2023/06/15 06:39:41;;;;;;;8.15;3.90;;;;;;;;;;5063305;28;20104;-77
2023/06/15 06:42:06;;;;;;;6.63;3.47;;;;;;;;;;5066093;28;20027;-75
2023/06/15 06:44:31;;;;;;;6.10;4.03;;;;;;;;;;5069980;28;20028;-75
2023/06/15 06:46:57;;;;;;;8.93;3.70;;;;;;;;;;5067463;28;20076;-75
2023/06/15 06:49:22;;;;;;;4.82;3.80;;;;;;;;;;5059462;28;20060;-75
2023/06/15 06:51:47;;;;;;;9.32;4.28;;;;;;;;;;5060300;28;20048;-75
2023/06/15 06:54:12;;;;;;;5.55;3.90;;;;;;;;;;5064852;28;20052;-74
2023/06/15 06:56:38;;;;;;;7.88;4.40;;;;;;;;;;5064934;28;20016;-74
2023/06/15 06:59:03;;;;;;;7.85;4.05;;;;;;;;;;5074471;28;20039;-74
2023/06/15 07:01:28;;;;;;;11.23;4.22;;;;;;;;;;5063278;28;20545;-75
2023/06/15 07:03:54;;;;;;;4.47;3.85;;;;;;;;;;5071843;28;20033;-75
2023/06/15 07:06:19;;;;;;;9.15;4.40;;;;;;;;;;5061594;28;20483;-74
2023/06/15 07:08:46;;;;;;;7.60;3.97;;;;;;;;;;5056349;28;20047;-75
2023/06/15 07:11:12;;;;;;;6.38;3.75;;;;;;;;;;5061202;28;20040;-74
2023/06/15 07:13:37;;;;;;;5.20;3.78;;;;;;;;;;5056570;28;20082;-74
2023/06/15 07:16:04;;;;;;;4.82;4.00;;;;;;;;;;5060669;28;20064;-74
2023/06/15 07:18:29;;;;;;;7.07;3.75;;;;;;;;;;5064526;28;20663;-75
2023/06/15 07:20:54;;;;;;;9.38;4.05;;;;;;;;;;5064333;28;20027;-75
2023/06/15 07:23:21;;;;;;;4.45;4.05;;;;;;;;;;5069986;28;20524;-74
2023/06/15 07:25:47;;;;;;;9.07;4.32;;;;;;;;;;5061003;28;20037;-74
2023/06/15 07:28:12;;;;;;;5.22;3.90;;;;;;;;;;5061621;28;20067;-74
2023/06/15 07:30:38;;;;;;;4.28;3.63;;;;;;;;;;5062508;28;20499;-74
2023/06/15 07:33:03;;;;;;;4.78;4.25;;;;;;;;;;5066841;28;20024;-74
2023/06/15 07:35:28;;;;;;;6.13;3.97;;;;;;;;;;5064589;28;20139;-74
2023/06/15 07:37:53;;;;;;;11.57;4.30;;;;;;;;;;5065931;28;20033;-74
2023/06/15 07:40:19;;;;;;;5.10;3.90;;;;;;;;;;5062497;28;20039;-74
2023/06/15 07:42:44;;;;;;;5.90;3.53;;;;;;;;;;5056816;28;20041;-74
2023/06/15 07:45:10;;;;;;;4.43;3.17;;;;;;;;;;5058393;28;20056;-74
2023/06/15 07:47:35;;;;;;;4.90;3.40;;;;;;;;;;5060746;28;20104;-74
2023/06/15 07:50:00;;;;;;;4.28;3.22;;;;;;;;;;5062603;28;20509;-73
2023/06/15 07:52:26;;;;;;;6.05;3.50;;;;;;;;;;5058734;28;20035;-76
2023/06/15 07:54:51;;;;;;;6.65;3.53;;;;;;;;;;5059225;28;20630;-76
2023/06/15 07:57:16;;;;;;;5.03;3.35;;;;;;;;;;5056566;28;20036;-76
2023/06/15 07:59:41;;;;;;;6.43;3.17;;;;;;;;;;5059560;28;20025;-76
2023/06/15 08:02:07;;;;;;;3.38;3.10;;;;;;;;;;5053004;28;20292;-76
2023/06/15 08:04:32;;;;;;;6.55;3.50;;;;;;;;;;5060594;28;20036;-76
2023/06/15 08:06:57;;;;;;;4.40;3.22;;;;;;;;;;5063191;28;20059;-76
2023/06/15 08:09:22;;;;;;;3.88;3.10;;;;;;;;;;5060537;28;20553;-76
2023/06/15 08:11:49;;;;;;;6.75;3.08;;;;;;;;;;5061402;28;20079;-76
2023/06/15 08:14:14;;;;;;;3.88;3.10;;;;;;;;;;5056029;28;20063;-76
2023/06/15 08:16:39;;;;;;;3.25;2.95;;;;;;;;;;5050682;28;20499;-76
2023/06/15 08:19:05;;;;;;;3.67;3.35;;;;;;;;;;5056123;28;20085;-76
2023/06/15 08:21:32;;;;;;;4.57;3.22;;;;;;;;;;5058825;28;20386;-76
2023/06/15 08:23:57;;;;;;;3.17;2.88;;;;;;;;;;5060528;28;20395;-76
2023/06/15 08:26:23;;;;;;;7.55;3.08;;;;;;;;;;5055309;28;20029;-74
2023/06/15 08:28:48;;;;;;;5.85;2.95;;;;;;;;;;5053578;28;20063;-74
2023/06/15 08:31:13;;;;;;;4.13;2.83;;;;;;;;;;5047124;28;20048;-75
2023/06/15 08:33:38;;;;;;;6.47;3.60;;;;;;;;;;5053617;28;20040;-75
2023/06/15 08:36:04;;;;;;;3.40;3.10;;;;;;;;;;5055478;28;20024;-75
2023/06/15 08:38:30;;;;;;;9.32;3.22;;;;;;;;;;5047682;28;20043;-75
2023/06/15 08:40:55;;;;;;;4.53;2.90;;;;;;;;;;5042500;28;20047;-74
2023/06/15 08:43:20;;;;;;;4.38;3.45;;;;;;;;;;5055610;28;20125;-75
2023/06/15 08:45:48;;;;;;;3.60;2.60;;;;;;;;;;5054347;28;20511;-75
2023/06/15 08:48:16;;;;;;;3.40;3.10;;;;;;;;;;5047448;28;20033;-75
2023/06/15 08:50:44;;;;;;;4.40;3.60;;;;;;;;;;5061223;28;20662;-75
2023/06/15 08:53:10;;;;;;;3.42;3.13;;;;;;;;;;5062872;28;20376;-75
2023/06/15 08:55:37;;;;;;;5.13;3.38;;;;;;;;;;5058313;28;20025;-75
2023/06/15 08:58:04;;;;;;;3.95;3.20;;;;;;;;;;5051997;28;20032;-75
2023/06/15 09:00:30;;;;;;;5.97;3.95;;;;;;;;;;5052201;28;20053;-74
2023/06/15 09:02:59;;;;;;;11.13;3.80;;;;;;;;;;5077818;28;20125;-75
2023/06/15 09:05:26;;;;;;;5.13;3.55;;;;;;;;;;5054767;28;20033;-74
2023/06/15 09:07:51;;;;;;;3.05;2.83;;;;;;;;;;5066321;28;20094;-75
2023/06/15 09:10:18;;;;;;;6.03;3.40;;;;;;;;;;5055777;28;20086;-75
2023/06/15 09:12:48;;;;;;;3.80;2.97;;;;;;;;;;5053497;28;20041;-75
2023/06/15 09:15:27;;;;;;;4.38;3.60;;;;;;;;;;5061746;28;20379;-75
2023/06/15 09:17:54;;;;;;;5.18;3.30;;;;;;;;;;5048444;28;20039;-75
2023/06/15 09:20:22;;;;;;;7.38;3.13;;;;;;;;;;5047953;28;20090;-75
2023/06/15 09:22:47;;;;;;;3.67;2.92;;;;;;;;;;5056963;28;20037;-75
2023/06/15 09:25:14;;;;;;;5.68;3.45;;;;;;;;;;5051435;28;20048;-75
2023/06/15 09:27:39;;;;;;;5.18;3.70;;;;;;;;;;5043112;28;20064;-75
2023/06/15 09:30:07;;;;;;;3.92;3.40;;;;;;;;;;5047873;28;20399;-75
2023/06/15 09:32:32;;;;;;;7.60;3.38;;;;;;;;;;5059960;28;20040;-74
2023/06/15 09:34:58;;;;;;;5.80;3.47;;;;;;;;;;5049204;28;20411;-74
2023/06/15 09:37:27;;;;;;;3.55;3.05;;;;;;;;;;5048911;28;20037;-74
2023/06/15 09:39:53;;;;;;;4.05;2.95;;;;;;;;;;5059232;28;20499;-74
2023/06/15 09:42:26;;;;;;;3.25;3.00;;;;;;;;;;5055252;28;20609;-75
2023/06/15 09:44:58;;;;;;;5.32;3.35;;;;;;;;;;5063555;28;20036;-75
2023/06/15 09:47:31;;;;;;;4.38;3.00;;;;;;;;;;5049405;28;20094;-75
2023/06/15 09:49:58;;;;;;;10.32;3.30;;;;;;;;;;5056788;28;20037;-75
2023/06/15 09:52:23;;;;;;;4.07;3.00;;;;;;;;;;5060126;28;20040;-75
2023/06/15 09:54:50;;;;;;;4.53;2.70;;;;;;;;;;5056362;28;20032;-75
2023/06/15 09:57:19;;;;;;;6.95;2.95;;;;;;;;;;5063663;28;20026;-75
2023/06/15 09:59:48;;;;;;;3.92;3.53;;;;;;;;;;5057920;28;20123;-75
2023/06/15 10:02:16;;;;;;;3.42;3.08;;;;;;;;;;5043297;28;20040;-74
2023/06/15 10:04:45;;;;;;;3.38;3.08;;;;;;;;;;5053595;28;20136;-75
2023/06/15 10:07:12;;;;;;;6.05;3.00;;;;;;;;;;5052326;28;20131;-75
2023/06/15 10:09:44;;;;;;;3.35;3.05;;;;;;;;;;5046327;28;20554;-75
2023/06/15 10:12:18;;;;;;;3.17;2.85;;;;;;;;;;5045238;28;20493;-75
2023/06/15 10:15:04;;;;;;;3.95;3.05;;;;;;;;;;5070673;28;20562;-75
2023/06/15 10:17:32;;;;;;;7.45;2.88;;;;;;;;;;5043137;28;20499;-75
2023/06/15 10:20:07;;;;;;;4.88;3.03;;;;;;;;;;5041542;28;20048;-75
2023/06/15 10:22:34;;;;;;;5.13;3.33;;;;;;;;;;5042576;28;20044;-75
2023/06/15 10:24:59;;;;;;;8.18;3.13;;;;;;;;;;5044068;28;20099;-75
2023/06/15 10:27:26;;;;;;;5.65;3.08;;;;;;;;;;5067066;28;20113;-75
2023/06/15 10:29:59;;;;;;;4.13;2.85;;;;;;;;;;5046267;28;20074;-76
2023/06/15 10:32:31;;;;;;;3.65;2.80;;;;;;;;;;5042353;28;20062;-76
2023/06/15 10:35:01;;;;;;;3.40;3.10;;;;;;;;;;5041855;28;20037;-75
2023/06/15 10:37:56;;;;;;;2.92;2.63;;;;;;;;;;5039596;28;20037;-75
2023/06/15 10:40:28;;;;;;;;;;;;;;;;;;5040961;28;20052;-75
2023/06/15 10:42:55;;;;;;;4.72;3.45;;;;;;;;;;5041709;28;20002;-75
2023/06/15 10:45:28;;;;;;;4.60;2.60;;;;;;;;;;5041967;28;20064;-75
2023/06/15 10:47:56;;;;;;;8.90;3.53;;;;;;;;;;5071903;28;20730;-74
2023/06/15 10:50:21;;;;;;;8.10;2.70;;;;;;;;;;5059669;28;20503;-73
2023/06/15 10:52:47;;;;;;;4.95;2.97;;;;;;;;;;5041747;28;20334;-73
2023/06/15 10:55:15;;;;;;;4.00;3.03;;;;;;;;;;5048872;28;20062;-74
2023/06/15 10:57:41;;;;;;;3.63;2.90;;;;;;;;;;5080758;28;20028;-74
2023/06/15 11:00:08;;;;;;;4.13;2.72;;;;;;;;;;5041189;28;20048;-76
2023/06/15 11:02:33;;;;;;;3.17;2.60;;;;;;;;;;5046504;28;20438;-76
2023/06/15 11:05:04;;;;;;;4.43;3.00;;;;;;;;;;5058890;28;20056;-76
2023/06/15 11:07:34;;;;;;;4.65;3.08;;;;;;;;;;5055059;28;20084;-76
2023/06/15 11:10:00;;;;;;;3.22;2.92;;;;;;;;;;5062991;28;20036;-76
2023/06/15 11:12:32;;;;;;;6.22;2.80;;;;;;;;;;5057629;28;20041;-76
2023/06/15 11:15:00;;;;;;;6.35;2.60;;;;;;;;;;5074429;28;20069;-76
2023/06/15 11:17:27;;;;;;;4.38;2.88;;;;;;;;;;5067888;28;20564;-76
2023/06/15 11:19:52;;;;;;;4.05;2.95;;;;;;;;;;5057812;28;20124;-76
2023/06/15 11:22:25;;;;;;;6.82;3.30;;;;;;;;;;5058137;28;20538;-76
2023/06/15 11:24:54;;;;;;;4.28;3.20;;;;;;;;;;5066195;28;20033;-76
2023/06/15 11:27:20;;;;;;;3.40;3.10;;;;;;;;;;5059602;28;20074;-76
2023/06/15 11:29:46;;;;;;;7.22;3.20;;;;;;;;;;5061188;28;20039;-76
2023/06/15 11:32:12;;;;;;;3.20;2.90;;;;;;;;;;5072696;28;20037;-76
2023/06/15 11:34:39;;;;;;;4.63;3.40;;;;;;;;;;5066477;28;20409;-76
2023/06/15 11:37:05;;;;;;;7.15;3.38;;;;;;;;;;5066588;28;20078;-76
2023/06/15 11:39:31;;;;;;;7.95;3.33;;;;;;;;;;5061492;28;20043;-76
2023/06/15 11:41:58;;;;;;;9.43;3.40;;;;;;;;;;5063020;28;20036;-76
2023/06/15 11:44:25;;;;;;;8.40;3.00;;;;;;;;;;5069262;28;20036;-76
2023/06/15 11:46:58;;;;;;;3.55;3.13;;;;;;;;;;5058433;28;20037;-76
2023/06/15 11:49:24;;;;;;;7.18;3.30;;;;;;;;;;5074730;28;20036;-76
2023/06/15 11:51:52;;;;;;;7.68;3.30;;;;;;;;;;5070007;28;20041;-76
2023/06/15 11:54:22;;;;;;;8.00;3.00;;;;;;;;;;5065776;28;20028;-74
2023/06/15 11:56:47;;;;;;;6.03;3.33;;;;;;;;;;5057235;28;20491;-74
2023/06/15 11:59:15;;;;;;;8.43;2.95;;;;;;;;;;5051846;28;20028;-74
2023/06/15 12:01:41;;;;;;;3.88;3.15;;;;;;;;;;5059410;28;20551;-75
2023/06/15 12:04:12;;;;;;;3.58;2.90;;;;;;;;;;5068754;28;20036;-75
2023/06/15 12:06:38;;;;;;;3.97;3.10;;;;;;;;;;5064722;28;20028;-74
2023/06/15 12:09:04;;;;;;;4.30;2.90;;;;;;;;;;5062627;28;20495;-74
2023/06/15 12:11:29;;;;;;;3.80;3.05;;;;;;;;;;5060700;28;20036;-74
2023/06/15 12:14:05;;;;;;;8.80;3.17;;;;;;;;;;5066295;28;20040;-74
2023/06/15 12:16:30;;;;;;;5.85;3.28;;;;;;;;;;5062538;28;20028;-73
2023/06/15 12:19:00;;;;;;;4.32;3.42;;;;;;;;;;5066633;28;20047;-74
2023/06/15 12:21:32;;;;;;;4.28;2.83;;;;;;;;;;5064857;28;20085;-74
2023/06/15 12:23:58;;;;;;;6.20;3.47;;;;;;;;;;5060277;28;20048;-72
2023/06/15 12:26:32;;;;;;;4.95;3.17;;;;;;;;;;5059967;28;20178;-72
2023/06/15 12:28:57;;;;;;;;;;;;;;;;;;5057628;28;20501;-72
2023/06/15 12:31:31;;;;;;;8.45;3.10;;;;;;;;;;5061746;28;19923;-72
2023/06/15 12:33:56;;;;;;;;;;;;;;;;;;5059746;28;20048;-72
2023/06/15 12:36:22;;;;;;;6.70;2.80;;;;;;;;;;5069300;28;19925;-72
2023/06/15 12:38:48;;;;;;;3.90;2.88;;;;;;;;;;5057040;28;20320;-72
2023/06/15 12:41:15;;;;;;;7.57;3.17;;;;;;;;;;5062926;28;20517;-72
2023/06/15 12:43:41;;;;;;;4.00;3.10;;;;;;;;;;5061584;28;20036;-72
2023/06/15 12:46:06;;;;;;;2.88;2.67;;;;;;;;;;5059110;28;20151;-72
2023/06/15 12:48:31;;;;;;;5.40;2.70;;;;;;;;;;5059711;28;20044;-72
2023/06/15 12:50:58;;;;;;;5.20;3.08;;;;;;;;;;5059902;28;20020;-72
2023/06/15 12:53:23;;;;;;;3.22;2.92;;;;;;;;;;5062953;28;20048;-72
2023/06/15 12:55:48;;;;;;;3.58;3.08;;;;;;;;;;5058142;28;20037;-72
2023/06/15 12:58:14;;;;;;;3.90;2.83;;;;;;;;;;5049902;28;20376;-72
2023/06/15 13:00:40;;;;;;;3.05;2.85;;;;;;;;;;5059604;28;20127;-72
2023/06/15 13:03:06;;;;;;;4.07;2.97;;;;;;;;;;5055956;28;20095;-72
2023/06/15 13:05:33;;;;;;;4.03;2.78;;;;;;;;;;5053712;28;20459;-72
2023/06/15 13:08:00;;;;;;;2.90;2.60;;;;;;;;;;5054738;28;20037;-72
2023/06/15 13:10:25;;;;;;;6.20;2.83;;;;;;;;;;5057946;28;20429;-73
2023/06/15 13:12:51;;;;;;;3.58;2.90;;;;;;;;;;5058802;28;20107;-72
2023/06/15 13:15:16;;;;;;;3.92;3.38;;;;;;;;;;5061945;28;20020;-72
2023/06/15 13:17:41;;;;;;;3.30;3.05;;;;;;;;;;5062572;28;20073;-72
2023/06/15 13:20:08;;;;;;;3.65;2.90;;;;;;;;;;5067475;28;20513;-72
2023/06/15 13:22:34;;;;;;;5.40;3.10;;;;;;;;;;5066686;28;20047;-72
2023/06/15 13:25:04;;;;;;;3.40;3.10;;;;;;;;;;5062764;28;20123;-72
2023/06/15 13:27:32;;;;;;;11.65;3.50;;;;;;;;;;5063350;28;20120;-72
2023/06/15 13:29:57;;;;;;;3.42;3.10;;;;;;;;;;5065761;28;20024;-72
2023/06/15 13:32:22;;;;;;;5.75;2.83;;;;;;;;;;5055419;28;20101;-73
2023/06/15 13:34:47;;;;;;;6.32;2.90;;;;;;;;;;5061065;28;20045;-74
2023/06/15 13:37:16;;;;;;;3.03;2.78;;;;;;;;;;5054533;28;20044;-71
2023/06/15 13:39:42;;;;;;;3.63;2.92;;;;;;;;;;5060097;28;20036;-73
2023/06/15 13:42:07;;;;;;;3.75;2.92;;;;;;;;;;5058633;28;20037;-73
2023/06/15 13:44:33;;;;;;;5.82;3.25;;;;;;;;;;5060080;28;20075;-73
2023/06/15 13:46:59;;;;;;;5.70;3.13;;;;;;;;;;5058412;28;20333;-73
2023/06/15 13:49:24;;;;;;;4.68;3.03;;;;;;;;;;5057219;28;20041;-73
2023/06/15 13:51:50;;;;;;;9.40;2.88;;;;;;;;;;5059172;28;20059;-73
2023/06/15 13:54:16;;;;;;;3.50;3.22;;;;;;;;;;5058102;28;20049;-73
2023/06/15 13:56:41;;;;;;;8.70;3.03;;;;;;;;;;5059745;28;20052;-73
2023/06/15 13:59:06;;;;;;;6.20;3.25;;;;;;;;;;5059445;28;20055;-73
2023/06/15 14:01:32;;;;;;;3.30;2.75;;;;;;;;;;5060082;28;20052;-72
2023/06/15 14:03:57;;;;;;;6.82;2.83;;;;;;;;;;5060097;28;20032;-72
2023/06/15 14:06:22;;;;;;;3.05;2.85;;;;;;;;;;5060299;28;20390;-73
2023/06/15 14:08:48;;;;;;;7.57;3.00;;;;;;;;;;5059879;28;20055;-72
2023/06/15 14:11:15;;;;;;;6.72;2.97;;;;;;;;;;5058139;28;20044;-73
2023/06/15 14:13:41;;;;;;;3.22;2.90;;;;;;;;;;5053865;28;20040;-73
2023/06/15 14:16:06;;;;;;;3.20;2.90;;;;;;;;;;5057518;28;20391;-72
2023/06/15 14:18:31;;;;;;;4.35;3.20;;;;;;;;;;5055533;28;20032;-72
2023/06/15 14:20:57;;;;;;;7.85;3.00;;;;;;;;;;5054987;28;20025;-72
2023/06/15 14:23:22;;;;;;;7.00;3.10;;;;;;;;;;5054443;28;20394;-72
2023/06/15 14:25:48;;;;;;;7.32;3.38;;;;;;;;;;5059688;28;20563;-72
2023/06/15 14:28:13;;;;;;;9.20;3.17;;;;;;;;;;5053177;28;20575;-72
2023/06/15 14:30:39;;;;;;;10.20;3.30;;;;;;;;;;5057711;28;20048;-72
2023/06/15 14:33:05;;;;;;;5.07;3.33;;;;;;;;;;5058994;28;20017;-72
2023/06/15 14:35:30;;;;;;;3.40;3.10;;;;;;;;;;5056159;28;20099;-72
2023/06/15 14:37:55;;;;;;;5.80;3.63;;;;;;;;;;5056097;28;20033;-72
2023/06/15 14:40:21;;;;;;;4.15;3.17;;;;;;;;;;5059172;28;20041;-72